Time;durP1;ratioP1;P1;durP2;ratioP2;P2;SDS_P1;SDS_P2;PMS_P1;PMS_P2;Temp;Humidity;BMP_temperature;BMP_pressure;BME280_temperature;BME280_humidity;BME280_pressure;Samples;Min_cycle;Max_cycle;Signal;HPM_P1;HPM_P2
2022/04/23 00:02:12;;;;;;;5.60;4.93;;;20.80;62.40;;;;;;5016964;28;93314;-67
2022/04/23 00:04:39;;;;;;;5.43;4.90;;;20.80;62.20;;;;;;5017046;28;93284;-67
2022/04/23 00:07:05;;;;;;;7.25;5.40;;;20.80;62.30;;;;;;5016857;28;92010;-67
2022/04/23 00:09:31;;;;;;;5.15;4.63;;;20.80;62.30;;;;;;5013212;28;92577;-66
2022/04/23 00:11:58;;;;;;;6.45;5.03;;;20.70;62.10;;;;;;5018072;28;92893;-67
2022/04/23 00:14:27;;;;;;;5.72;5.22;;;20.70;62.40;;;;;;5018449;28;91972;-67
2022/04/23 00:16:53;;;;;;;;;;;20.70;62.20;;;;;;5017463;28;92558;-67
2022/04/23 00:19:20;;;;;;;7.00;5.30;;;20.70;62.30;;;;;;5019319;28;92902;-67
2022/04/23 00:21:46;;;;;;;5.68;4.75;;;20.70;62.10;;;;;;5016459;28;96078;-67
2022/04/23 00:24:12;;;;;;;6.82;5.03;;;20.70;62.00;;;;;;5018131;28;91988;-67
2022/04/23 00:26:37;;;;;;;4.97;4.47;;;20.70;62.00;;;;;;5018100;28;92395;-67
2022/04/23 00:29:03;;;;;;;5.72;5.13;;;20.70;62.10;;;;;;5016299;28;94011;-67
2022/04/23 00:31:29;;;;;;;6.00;5.22;;;20.70;62.30;;;;;;5009019;28;93184;-67
2022/04/23 00:33:54;;;;;;;6.57;4.65;;;20.70;62.10;;;;;;5017459;28;92799;-67
2022/04/23 00:36:23;;;;;;;5.25;4.80;;;20.70;62.00;;;;;;5017844;28;91937;-67
2022/04/23 00:38:52;;;;;;;4.93;4.43;;;20.70;62.10;;;;;;5017755;28;93095;-67
2022/04/23 00:42:08;;;;;;;5.45;4.95;;;20.80;62.00;;;;;;5011934;28;95593;-67
2022/04/23 00:44:10;;;;;;;5.30;4.80;;;20.70;62.00;;;;;;5010773;28;92424;-67
2022/04/23 00:46:36;;;;;;;4.95;4.30;;;20.70;62.00;;;;;;5015757;28;91667;-67
2022/04/23 00:49:06;;;;;;;5.05;4.55;;;20.70;61.80;;;;;;5010603;28;92666;-67
2022/04/23 00:51:35;;;;;;;5.57;4.95;;;20.70;61.90;;;;;;5009817;28;92551;-67
2022/04/23 00:54:07;;;;;;;6.18;4.55;;;20.70;61.80;;;;;;5014640;28;93460;-67
2022/04/23 00:56:36;;;;;;;5.30;4.80;;;20.70;61.90;;;;;;5014256;28;91975;-67
2022/04/23 00:59:16;;;;;;;5.45;4.55;;;20.70;61.90;;;;;;5014892;28;98675;-67
2022/04/23 01:01:43;;;;;;;5.43;4.90;;;20.70;62.00;;;;;;5014690;28;94446;-67
2022/04/23 01:04:09;;;;;;;6.75;5.40;;;20.70;61.90;;;;;;5017313;28;92140;-67
2022/04/23 01:06:38;;;;;;;5.97;5.10;;;20.70;61.90;;;;;;5017194;28;92062;-67
2022/04/23 01:09:08;;;;;;;5.45;4.95;;;20.70;61.90;;;;;;5016820;28;92801;-67
2022/04/23 01:11:35;;;;;;;5.20;4.68;;;20.70;61.80;;;;;;5010443;28;92192;-67
2022/04/23 01:14:01;;;;;;;6.60;4.68;;;20.70;62.00;;;;;;5016993;28;92191;-67
2022/04/23 01:16:30;;;;;;;5.18;4.68;;;20.70;62.10;;;;;;5016158;28;91967;-67
2022/04/23 01:18:59;;;;;;;5.50;5.00;;;20.70;61.70;;;;;;5010097;28;97352;-67
2022/04/23 01:21:26;;;;;;;5.23;4.73;;;20.70;61.70;;;;;;5014713;28;97355;-67
2022/04/23 01:23:54;;;;;;;5.20;4.70;;;20.70;61.70;;;;;;5014799;28;93581;-67
2022/04/23 01:26:26;;;;;;;5.03;4.53;;;20.60;61.60;;;;;;5009855;28;92016;-67
2022/04/23 01:28:52;;;;;;;5.45;4.78;;;20.70;61.80;;;;;;5016183;28;92562;-67
2022/04/23 01:31:17;;;;;;;6.55;4.70;;;20.60;61.70;;;;;;5016275;28;92787;-67
2022/04/23 01:33:46;;;;;;;6.57;4.70;;;20.60;61.90;;;;;;5017066;28;91869;-67
2022/04/23 01:36:13;;;;;;;5.60;4.50;;;20.60;61.60;;;;;;5010138;28;91724;-67
2022/04/23 01:38:40;;;;;;;5.32;4.82;;;20.60;61.60;;;;;;5013714;28;93743;-67
2022/04/23 01:41:08;;;;;;;4.95;4.47;;;20.60;61.40;;;;;;5016110;28;93605;-67
2022/04/23 01:43:33;;;;;;;5.80;4.88;;;20.60;61.50;;;;;;5015972;28;93567;-67
2022/04/23 01:45:59;;;;;;;5.57;4.70;;;20.60;61.50;;;;;;5017169;28;92083;-67
2022/04/23 01:48:27;;;;;;;6.03;4.70;;;20.70;61.70;;;;;;5016741;28;92229;-67
2022/04/23 01:50:55;;;;;;;6.20;4.72;;;20.60;61.60;;;;;;5016131;28;92291;-67
2022/04/23 01:53:22;;;;;;;5.90;5.30;;;20.60;61.50;;;;;;5015017;28;92563;-67
2022/04/23 01:55:51;;;;;;;5.03;4.43;;;20.60;61.40;;;;;;5012814;28;92269;-67
2022/04/23 01:58:17;;;;;;;5.07;4.57;;;20.60;61.40;;;;;;5016451;28;93210;-67
2022/04/23 02:00:44;;;;;;;5.55;4.88;;;20.70;61.30;;;;;;5014509;28;95896;-67
2022/04/23 02:03:09;;;;;;;5.38;4.68;;;20.60;61.20;;;;;;5011219;28;92465;-67
2022/04/23 02:05:35;;;;;;;5.63;4.82;;;20.60;61.40;;;;;;5012454;28;92351;-67
2022/04/23 02:08:01;;;;;;;5.32;4.68;;;20.60;61.10;;;;;;5012819;28;94102;-67
2022/04/23 02:10:26;;;;;;;6.40;4.97;;;20.60;61.70;;;;;;5011426;28;93866;-67
2022/04/23 02:12:52;;;;;;;5.38;4.57;;;20.60;61.00;;;;;;5014042;28;92129;-67
2022/04/23 02:15:18;;;;;;;5.38;4.88;;;20.60;61.10;;;;;;5015578;28;92015;-67
2022/04/23 02:17:45;;;;;;;4.70;4.30;;;20.60;61.20;;;;;;5011273;28;95689;-67
2022/04/23 02:20:12;;;;;;;5.22;4.35;;;20.60;61.20;;;;;;5013979;28;92310;-67
2022/04/23 02:22:39;;;;;;;5.85;4.90;;;20.60;61.00;;;;;;5016299;28;92370;-67
2022/04/23 02:25:06;;;;;;;5.00;4.50;;;20.60;60.90;;;;;;5012953;28;91247;-67
2022/04/23 02:27:48;;;;;;;4.72;4.32;;;20.50;61.00;;;;;;5011857;28;94730;-67
2022/04/23 02:30:22;;;;;;;5.13;4.63;;;20.50;61.10;;;;;;5015911;28;92164;-67
2022/04/23 02:32:49;;;;;;;5.85;4.57;;;20.50;61.10;;;;;;5013145;28;93231;-67
2022/04/23 02:35:16;;;;;;;4.65;4.10;;;20.50;61.10;;;;;;5010189;28;92255;-67
2022/04/23 02:37:44;;;;;;;5.82;4.97;;;20.60;61.10;;;;;;5015431;28;92372;-67
2022/04/23 02:40:10;;;;;;;4.70;4.30;;;20.50;61.00;;;;;;5004168;28;93844;-66
2022/04/23 02:42:40;;;;;;;4.80;4.30;;;20.50;60.90;;;;;;5014169;28;92527;-67
2022/04/23 02:45:07;;;;;;;5.28;4.25;;;20.50;60.90;;;;;;5015474;28;91918;-67
2022/04/23 02:47:48;;;;;;;5.78;5.18;;;20.50;61.00;;;;;;5008518;28;93302;-67
2022/04/23 02:50:22;;;;;;;4.75;4.30;;;20.50;61.10;;;;;;5015032;28;92467;-67
2022/04/23 02:52:47;;;;;;;5.00;4.50;;;20.50;61.10;;;;;;5015461;28;92035;-67
2022/04/23 02:55:13;;;;;;;4.85;4.10;;;20.50;61.00;;;;;;5012088;28;92312;-67
2022/04/23 02:57:42;;;;;;;5.63;5.10;;;20.50;61.10;;;;;;5014798;28;93537;-67
2022/04/23 03:00:12;;;;;;;5.50;4.65;;;20.50;61.00;;;;;;5015873;28;93687;-67
2022/04/23 03:02:39;;;;;;;5.82;4.70;;;20.50;60.80;;;;;;5015481;28;91945;-67
2022/04/23 03:05:10;;;;;;;5.40;4.90;;;20.50;60.90;;;;;;5014848;28;92530;-67
2022/04/23 03:07:36;;;;;;;6.35;4.68;;;20.50;60.90;;;;;;5013873;28;93079;-67
2022/04/23 03:10:04;;;;;;;5.30;4.80;;;20.50;60.90;;;;;;5015197;28;92212;-67
2022/04/23 03:12:30;;;;;;;4.70;4.30;;;20.50;60.70;;;;;;5016147;28;92213;-67
2022/04/23 03:14:56;;;;;;;5.05;4.55;;;20.50;60.80;;;;;;5016172;28;91465;-67
2022/04/23 03:17:22;;;;;;;4.97;4.47;;;20.50;60.80;;;;;;5012568;28;93072;-67
2022/04/23 03:19:47;;;;;;;5.35;4.85;;;20.50;60.70;;;;;;5011853;28;94413;-67
2022/04/23 03:22:16;;;;;;;4.97;4.55;;;20.50;60.70;;;;;;5018069;28;93233;-67
2022/04/23 03:24:42;;;;;;;4.90;4.40;;;20.50;60.60;;;;;;5018585;28;92508;-67
2022/04/23 03:27:11;;;;;;;4.75;4.32;;;20.50;60.70;;;;;;5019035;28;93070;-67
2022/04/23 03:29:36;;;;;;;5.07;4.57;;;20.50;60.70;;;;;;5009324;28;95399;-67
2022/04/23 03:32:02;;;;;;;6.03;4.70;;;20.50;60.50;;;;;;5018977;28;91936;-67
2022/04/23 03:34:28;;;;;;;4.60;4.20;;;20.40;60.50;;;;;;5017504;28;92395;-67
2022/04/23 03:36:53;;;;;;;5.20;4.70;;;20.40;60.40;;;;;;5018598;28;93267;-67
2022/04/23 03:39:21;;;;;;;4.90;4.40;;;20.40;60.30;;;;;;5014381;28;92680;-67
2022/04/23 03:41:47;;;;;;;4.93;4.43;;;20.40;60.50;;;;;;5017263;28;92026;-68
2022/04/23 03:44:13;;;;;;;5.57;4.55;;;20.40;60.60;;;;;;5014788;28;91981;-67
2022/04/23 03:46:38;;;;;;;5.07;4.57;;;20.40;60.40;;;;;;5013505;28;95236;-67
2022/04/23 03:49:09;;;;;;;4.20;3.83;;;20.40;60.40;;;;;;5018560;28;94403;-67
2022/04/23 03:51:35;;;;;;;5.18;4.68;;;20.40;60.60;;;;;;5017074;28;91951;-67
2022/04/23 03:54:01;;;;;;;5.30;4.80;;;20.40;60.40;;;;;;5017428;28;92324;-67
2022/04/23 03:56:27;;;;;;;5.32;4.80;;;20.40;60.60;;;;;;5014973;28;93585;-67
2022/04/23 03:58:54;;;;;;;5.32;4.82;;;20.40;60.40;;;;;;5015728;28;96024;-67
2022/04/23 04:01:20;;;;;;;5.22;4.72;;;20.40;60.60;;;;;;5012099;28;92079;-67
2022/04/23 04:03:46;;;;;;;4.95;4.32;;;20.40;60.60;;;;;;5014425;28;91340;-67
2022/04/23 04:06:12;;;;;;;4.80;4.40;;;20.40;60.40;;;;;;4996947;28;95820;-67
2022/04/23 04:08:37;;;;;;;6.22;4.90;;;20.40;60.50;;;;;;5018066;28;92856;-67
2022/04/23 04:11:05;;;;;;;5.07;4.63;;;20.40;60.50;;;;;;5012934;28;93454;-67
2022/04/23 04:13:31;;;;;;;6.10;5.50;;;20.40;60.60;;;;;;5014190;28;91984;-67
2022/04/23 04:15:59;;;;;;;5.20;4.70;;;20.40;60.40;;;;;;5015732;28;92944;-67
2022/04/23 04:18:25;;;;;;;5.47;4.68;;;20.40;60.40;;;;;;5016818;28;92290;-67
2022/04/23 04:20:53;;;;;;;5.00;4.50;;;20.40;60.40;;;;;;5017168;28;91956;-67
2022/04/23 04:23:20;;;;;;;5.43;4.93;;;20.40;60.30;;;;;;5016094;28;92042;-67
2022/04/23 04:25:46;;;;;;;5.22;4.65;;;20.40;60.30;;;;;;5013858;28;92316;-67
2022/04/23 04:28:12;;;;;;;4.97;4.47;;;20.40;60.20;;;;;;5018579;28;92676;-67
2022/04/23 04:33:22;;;;;;;4.88;4.43;;;20.30;60.20;;;;;;5017464;28;92487;-67
2022/04/23 04:35:48;;;;;;;4.45;4.05;;;20.40;60.40;;;;;;5016649;28;94050;-67
2022/04/23 04:38:13;;;;;;;4.95;4.55;;;20.30;60.30;;;;;;5016836;28;93207;-67
2022/04/23 04:40:39;;;;;;;5.28;4.78;;;20.30;60.20;;;;;;5018496;28;93227;-67
2022/04/23 04:43:05;;;;;;;4.90;4.40;;;20.30;60.30;;;;;;5018126;28;91934;-66
2022/04/23 04:45:30;;;;;;;4.95;4.55;;;20.30;60.50;;;;;;5018304;28;92990;-67
2022/04/23 04:47:56;;;;;;;5.22;4.40;;;20.30;60.40;;;;;;5016238;28;95514;-67
2022/04/23 04:50:23;;;;;;;5.22;4.72;;;20.30;60.40;;;;;;5018024;28;91997;-66
2022/04/23 04:52:49;;;;;;;5.53;4.97;;;20.30;60.40;;;;;;5018249;28;91615;-67
2022/04/23 04:55:17;;;;;;;5.05;4.55;;;20.30;60.50;;;;;;5017011;28;93064;-67
2022/04/23 04:57:43;;;;;;;5.43;4.93;;;20.30;60.40;;;;;;5016738;28;92870;-67
2022/04/23 05:00:09;;;;;;;4.93;4.53;;;20.30;60.40;;;;;;5016225;28;93312;-67
2022/04/23 05:02:35;;;;;;;5.38;4.88;;;20.30;60.30;;;;;;5015381;28;92519;-67
2022/04/23 05:05:00;;;;;;;5.25;4.75;;;20.30;60.30;;;;;;5015428;28;96636;-67
2022/04/23 05:07:28;;;;;;;5.28;4.78;;;20.30;60.50;;;;;;5014712;28;95991;-67
2022/04/23 05:09:54;;;;;;;5.03;4.63;;;20.30;60.50;;;;;;5017407;28;92183;-67
2022/04/23 05:12:20;;;;;;;5.15;4.75;;;20.30;60.50;;;;;;5016915;28;92181;-67
2022/04/23 05:14:48;;;;;;;4.43;4.03;;;20.30;60.50;;;;;;5016166;28;92649;-67
2022/04/23 05:17:14;;;;;;;4.85;4.45;;;20.30;60.20;;;;;;5016112;28;93731;-67
2022/04/23 05:19:39;;;;;;;5.25;4.75;;;20.30;60.40;;;;;;5016127;28;92659;-67
2022/04/23 05:22:05;;;;;;;4.65;4.25;;;20.30;60.20;;;;;;5013846;28;92064;-67
2022/04/23 05:24:31;;;;;;;5.07;4.63;;;20.30;60.30;;;;;;5010799;28;93587;-67
2022/04/23 05:26:56;;;;;;;4.85;4.40;;;20.30;60.40;;;;;;5015565;28;92859;-67
2022/04/23 05:29:22;;;;;;;4.50;4.10;;;20.30;60.40;;;;;;5012662;28;92496;-67
2022/04/23 05:31:47;;;;;;;4.30;3.90;;;20.30;60.80;;;;;;5012538;28;92167;-67
2022/04/23 05:34:15;;;;;;;5.53;4.68;;;20.30;60.70;;;;;;5011994;28;92511;-67
2022/04/23 05:36:41;;;;;;;4.45;4.05;;;20.30;60.90;;;;;;5002572;28;93461;-67
2022/04/23 05:39:06;;;;;;;5.43;4.93;;;20.40;60.80;;;;;;5015202;28;92120;-67
2022/04/23 05:41:34;;;;;;;4.68;4.28;;;20.30;60.40;;;;;;5017662;28;91512;-67
2022/04/23 05:44:00;;;;;;;5.03;4.53;;;20.40;60.60;;;;;;5015820;28;93148;-67
2022/04/23 05:46:26;;;;;;;4.70;4.30;;;20.40;60.60;;;;;;5010732;28;95966;-67
2022/04/23 05:48:51;;;;;;;4.75;4.25;;;20.40;60.60;;;;;;5014959;28;92853;-67
2022/04/23 05:51:17;;;;;;;4.72;4.28;;;20.40;60.60;;;;;;5009039;28;92241;-67
2022/04/23 05:53:46;;;;;;;5.22;4.75;;;20.40;60.60;;;;;;5015270;28;95836;-67
2022/04/23 05:56:11;;;;;;;4.60;4.20;;;20.40;60.70;;;;;;5016205;28;92320;-67
2022/04/23 05:58:37;;;;;;;5.10;4.60;;;20.40;60.60;;;;;;5016579;28;91947;-67
2022/04/23 06:01:04;;;;;;;4.63;4.22;;;20.40;60.60;;;;;;5016915;28;92898;-68
2022/04/23 06:03:29;;;;;;;5.90;4.55;;;20.50;60.70;;;;;;5016737;28;92566;-67
2022/04/23 06:05:58;;;;;;;4.50;4.10;;;20.50;60.60;;;;;;5008691;28;95714;-67
2022/04/23 06:08:24;;;;;;;5.13;4.63;;;20.50;60.70;;;;;;5010967;28;92301;-67
2022/04/23 06:10:52;;;;;;;5.53;4.55;;;20.50;60.70;;;;;;5016560;28;92311;-67
2022/04/23 06:13:17;;;;;;;4.72;4.30;;;20.50;60.70;;;;;;5009418;28;94171;-67
2022/04/23 06:15:43;;;;;;;5.63;4.10;;;20.50;60.80;;;;;;5008480;28;93758;-67
2022/04/23 06:18:09;;;;;;;5.35;4.85;;;20.50;60.50;;;;;;5015332;28;92921;-68
2022/04/23 06:20:34;;;;;;;4.68;4.28;;;20.50;60.60;;;;;;5016151;28;92377;-67
2022/04/23 06:23:04;;;;;;;6.13;4.57;;;20.50;60.50;;;;;;5012211;28;93227;-67
2022/04/23 06:25:30;;;;;;;;;;;20.50;60.70;;;;;;5012917;28;95972;-67
2022/04/23 06:27:56;;;;;;;5.95;5.40;;;20.50;60.60;;;;;;5013572;28;92724;-67
2022/04/23 06:30:24;;;;;;;10.02;5.25;;;20.50;60.70;;;;;;5016619;28;91225;-67
2022/04/23 06:32:50;;;;;;;8.02;5.28;;;20.50;60.60;;;;;;5015216;28;93112;-68
2022/04/23 06:35:16;;;;;;;6.93;6.18;;;20.60;61.00;;;;;;5012660;28;95557;-67
2022/04/23 06:37:42;;;;;;;7.30;6.57;;;20.60;61.20;;;;;;5012805;28;93493;-67
2022/04/23 06:40:12;;;;;;;6.72;6.03;;;20.60;61.20;;;;;;5000876;28;92197;-68
2022/04/23 06:42:43;;;;;;;10.32;5.68;;;20.60;61.50;;;;;;5005804;28;97834;-68
2022/04/23 06:45:09;;;;;;;12.38;6.32;;;20.60;61.50;;;;;;5006374;28;93070;-68
2022/04/23 06:47:35;;;;;;;11.48;6.57;;;20.60;61.60;;;;;;5009994;28;92290;-67
2022/04/23 06:50:01;;;;;;;9.77;5.68;;;20.60;61.90;;;;;;5015206;28;92399;-68
2022/04/23 06:52:27;;;;;;;11.55;6.22;;;20.60;62.10;;;;;;5015234;28;93104;-67
2022/04/23 06:54:55;;;;;;;9.65;6.10;;;20.60;62.30;;;;;;5014930;28;91924;-68
2022/04/23 06:57:24;;;;;;;6.43;5.75;;;20.60;62.40;;;;;;5016021;28;91966;-67
2022/04/23 06:59:50;;;;;;;;;;;20.60;62.50;;;;;;5014549;28;91969;-68
2022/04/23 07:02:20;;;;;;;13.32;6.45;;;20.60;62.90;;;;;;5013726;28;94479;-68
2022/04/23 07:04:45;;;;;;;6.95;5.85;;;20.60;62.60;;;;;;5010847;28;92502;-68
2022/04/23 07:07:11;;;;;;;9.90;6.03;;;20.60;62.80;;;;;;5010785;28;92494;-68
2022/04/23 07:09:37;;;;;;;9.43;6.00;;;20.60;62.90;;;;;;5013761;28;92173;-68
2022/04/23 07:12:05;;;;;;;10.40;5.95;;;20.70;63.10;;;;;;5013431;28;96393;-68
2022/04/23 07:14:31;;;;;;;10.13;6.07;;;20.70;63.20;;;;;;5014664;28;92517;-67
2022/04/23 07:16:57;;;;;;;8.43;6.32;;;20.70;63.20;;;;;;5015982;28;92298;-68
2022/04/23 07:19:24;;;;;;;10.20;6.03;;;20.70;63.40;;;;;;5015983;28;92027;-68
2022/04/23 07:21:52;;;;;;;16.05;6.68;;;20.70;63.00;;;;;;5011545;28;92060;-68
2022/04/23 07:24:18;;;;;;;9.53;5.97;;;20.70;62.60;;;;;;5012836;28;96375;-68
2022/04/23 07:26:43;;;;;;;8.15;6.20;;;20.70;63.30;;;;;;5015548;28;93197;-68
2022/04/23 07:29:13;;;;;;;12.98;6.20;;;20.70;63.30;;;;;;5005616;28;91933;-67
2022/04/23 07:31:38;;;;;;;;;;;20.70;62.80;;;;;;5012983;28;94014;-68
2022/04/23 07:39:34;;;;;;;15.30;6.35;;;20.70;61.90;;;;;;5013575;28;92396;-68
2022/04/23 07:41:59;;;;;;;9.68;6.15;;;20.70;62.10;;;;;;5015288;28;92761;-68
2022/04/23 07:44:25;;;;;;;11.43;6.40;;;20.70;62.20;;;;;;5014894;28;92865;-68
2022/04/23 07:46:51;;;;;;;17.85;7.10;;;20.70;61.70;;;;;;5005533;28;91978;-68
2022/04/23 07:49:19;;;;;;;15.82;7.75;;;20.70;61.90;;;;;;5004517;28;92047;-68
2022/04/23 07:51:49;;;;;;;13.95;7.45;;;20.70;62.20;;;;;;5008622;28;93497;-68
2022/04/23 07:54:15;;;;;;;13.73;6.55;;;20.70;62.10;;;;;;5013593;28;93287;-68
2022/04/23 07:56:41;;;;;;;12.73;6.78;;;20.70;61.90;;;;;;5004290;28;91944;-68
2022/04/23 07:59:08;;;;;;;12.93;6.82;;;20.70;61.90;;;;;;5005791;28;92643;-68
2022/04/23 08:01:33;;;;;;;15.35;7.43;;;20.70;62.10;;;;;;5004670;28;93002;-68
2022/04/23 08:04:02;;;;;;;13.18;6.95;;;20.70;62.20;;;;;;5004807;28;92036;-68
2022/04/23 08:06:28;;;;;;;15.77;6.33;;;20.70;62.20;;;;;;4991192;28;92383;-68
2022/04/23 08:08:53;;;;;;;12.80;6.97;;;20.70;62.30;;;;;;5013709;28;91236;-68
2022/04/23 08:11:22;;;;;;;14.45;6.65;;;20.70;62.30;;;;;;5005612;28;92549;-67
2022/04/23 08:13:49;;;;;;;13.37;6.43;;;20.70;62.10;;;;;;5003274;28;92530;-67
2022/04/23 08:16:15;;;;;;;13.00;6.75;;;20.70;62.40;;;;;;5008213;28;92984;-68
2022/04/23 08:18:41;;;;;;;13.13;6.85;;;20.80;62.70;;;;;;5006043;28;92308;-67
2022/04/23 08:21:07;;;;;;;10.63;6.68;;;20.80;63.20;;;;;;5009905;28;95006;-67
2022/04/23 08:23:35;;;;;;;8.73;6.57;;;20.80;63.20;;;;;;5002234;28;92989;-68
2022/04/23 08:26:05;;;;;;;10.25;6.43;;;20.80;63.50;;;;;;5016675;28;92411;-67
2022/04/23 08:31:15;;;;;;;10.50;6.65;;;20.80;63.80;;;;;;5010556;28;92387;-68
2022/04/23 08:33:59;;;;;;;12.38;6.85;;;20.80;63.50;;;;;;5011587;28;92913;-68
2022/04/23 08:36:35;;;;;;;13.63;6.40;;;20.80;63.70;;;;;;5014904;28;92083;-68
2022/04/23 08:39:02;;;;;;;13.45;4.50;;;20.80;63.90;;;;;;5015564;28;92539;-68
2022/04/23 08:41:29;;;;;;;7.07;5.15;;;20.80;64.20;;;;;;5016897;28;93625;-68
2022/04/23 08:43:59;;;;;;;25.85;10.07;;;20.80;63.70;;;;;;5017284;28;93320;-68
2022/04/23 08:46:27;;;;;;;38.97;13.77;;;20.80;62.60;;;;;;5016722;28;92364;-68
2022/04/23 08:49:14;;;;;;;54.88;15.68;;;20.80;62.80;;;;;;5016460;28;91999;-68
2022/04/23 08:51:45;;;;;;;78.50;23.92;;;20.80;62.50;;;;;;5016616;28;93143;-68
2022/04/23 08:54:14;;;;;;;111.65;29.88;;;20.80;62.10;;;;;;5017172;28;92305;-68
2022/04/23 08:56:44;;;;;;;75.88;25.05;;;20.80;63.30;;;;;;5016713;28;92171;-67
2022/04/23 08:59:17;;;;;;;132.82;36.58;;;20.80;63.70;;;;;;5017124;28;91447;-67
2022/04/23 09:01:44;;;;;;;125.60;40.17;;;20.80;64.10;;;;;;5014559;28;92766;-68
2022/04/23 09:04:11;;;;;;;138.25;39.85;;;20.80;64.20;;;;;;5016313;28;93172;-68
2022/04/23 09:06:40;;;;;;;132.27;42.17;;;20.80;64.50;;;;;;5015581;28;92976;-68
2022/04/23 09:09:19;;;;;;;134.60;39.67;;;20.80;64.80;;;;;;5014314;28;92167;-67
2022/04/23 09:11:50;;;;;;;125.93;38.35;;;20.70;65.20;;;;;;5015479;28;93061;-67
2022/04/23 09:14:27;;;;;;;140.13;37.15;;;20.70;65.40;;;;;;5014937;28;92456;-68
2022/04/23 09:25:35;;;;;;;124.63;36.38;;;20.70;65.60;;;;;;5015355;28;92042;-65
2022/04/23 09:28:15;;;;;;;125.32;37.05;;;20.70;65.70;;;;;;5014445;28;91987;-64
2022/04/23 09:30:42;;;;;;;112.65;36.05;;;20.70;65.40;;;;;;5015996;28;92019;-65
2022/04/23 09:33:08;;;;;;;112.60;36.88;;;20.70;65.50;;;;;;5013225;28;97329;-65
2022/04/23 09:35:34;;;;;;;116.85;36.13;;;20.70;66.30;;;;;;5014708;28;93902;-65
2022/04/23 09:38:17;;;;;;;109.55;32.53;;;20.70;65.50;;;;;;5011021;28;92237;-65
2022/04/23 09:40:51;;;;;;;58.67;21.45;;;20.70;65.20;;;;;;5011397;28;93235;-65
2022/04/23 09:43:28;;;;;;;72.00;23.25;;;20.70;65.10;;;;;;5013363;28;92755;-65
2022/04/23 09:46:05;;;;;;;79.28;26.10;;;20.80;64.60;;;;;;5009487;28;93090;-65
2022/04/23 09:48:32;;;;;;;93.18;29.83;;;20.70;63.80;;;;;;5013734;28;92705;-65
2022/04/23 09:50:58;;;;;;;105.47;32.70;;;20.70;63.40;;;;;;5016639;28;92218;-65
2022/04/23 09:53:28;;;;;;;85.38;27.55;;;20.70;64.40;;;;;;5014901;27;93110;-65
2022/04/23 09:56:00;;;;;;;95.93;31.60;;;20.80;62.80;;;;;;5015029;28;93046;-65
2022/04/23 09:58:29;;;;;;;90.53;31.52;;;20.80;64.80;;;;;;5006937;28;92995;-65
2022/04/23 10:00:56;;;;;;;95.32;31.88;;;20.80;66.20;;;;;;5004987;28;92319;-65
2022/04/23 10:03:28;;;;;;;77.38;30.05;;;20.70;66.50;;;;;;5009625;27;93135;-65
2022/04/23 10:05:54;;;;;;;85.68;30.48;;;20.80;67.00;;;;;;5012834;28;92934;-65
2022/04/23 10:08:29;;;;;;;84.03;29.48;;;20.70;66.90;;;;;;5009019;28;92544;-65
2022/04/23 10:10:56;;;;;;;95.78;31.13;;;20.70;66.70;;;;;;5011310;28;92383;-65
2022/04/23 10:13:28;;;;;;;81.40;31.45;;;20.70;67.00;;;;;;5009787;28;93152;-65
2022/04/23 10:15:55;;;;;;;73.95;28.67;;;20.80;66.60;;;;;;5009780;28;92375;-65
2022/04/23 10:18:21;;;;;;;79.00;29.02;;;20.70;66.20;;;;;;5013445;28;93069;-65
2022/04/23 10:21:02;;;;;;;74.95;29.15;;;20.80;66.80;;;;;;5010228;28;92853;-65
2022/04/23 10:23:43;;;;;;;79.18;30.98;;;20.80;66.30;;;;;;5009371;28;93593;-65
2022/04/23 10:26:26;;;;;;;78.18;27.92;;;20.70;66.20;;;;;;5011285;28;93835;-65
2022/04/23 10:28:52;;;;;;;77.75;30.05;;;20.70;65.50;;;;;;5006482;28;92312;-65
2022/04/23 10:31:21;;;;;;;72.93;26.30;;;20.70;65.70;;;;;;5012935;28;92600;-64
2022/04/23 10:33:52;;;;;;;66.17;26.47;;;20.70;65.30;;;;;;5014852;28;92728;-65
2022/04/23 10:36:27;;;;;;;72.72;26.23;;;20.70;64.70;;;;;;5011539;27;92955;-64
2022/04/23 10:39:18;;;;;;;63.75;25.33;;;20.70;65.20;;;;;;5007633;28;93266;-65
2022/04/23 10:41:44;;;;;;;67.53;24.80;;;20.70;65.10;;;;;;5009026;28;92677;-64
2022/04/23 10:44:10;;;;;;;63.75;24.05;;;20.70;64.70;;;;;;5004379;28;96092;-65
2022/04/23 10:46:45;;;;;;;75.20;26.80;;;20.80;64.50;;;;;;5010070;28;93155;-65
2022/04/23 10:49:20;;;;;;;53.22;21.08;;;20.80;64.40;;;;;;5006507;28;94068;-65
2022/04/23 10:51:47;;;;;;;59.88;23.40;;;20.80;64.60;;;;;;5013118;28;91985;-65
2022/04/23 10:54:15;;;;;;;66.53;24.17;;;20.80;64.60;;;;;;5008253;28;95999;-65
2022/04/23 10:56:42;;;;;;;59.80;23.30;;;20.80;65.00;;;;;;5012352;28;96198;-65
2022/04/23 10:59:40;;;;;;;66.93;24.65;;;20.80;65.20;;;;;;5020638;27;93277;-64
2022/04/23 11:02:13;;;;;;;62.38;23.40;;;20.80;65.00;;;;;;5016001;28;92673;-64
2022/04/23 11:14:44;;;;;;;55.10;22.63;;;20.80;64.80;;;;;;5006535;28;92655;-64
2022/04/23 11:17:21;;;;;;;46.60;21.30;;;20.80;64.80;;;;;;5010205;28;96701;-65
2022/04/23 11:19:53;;;;;;;58.25;22.45;;;20.80;64.80;;;;;;5013602;28;93822;-64
2022/04/23 11:22:23;;;;;;;53.35;21.92;;;20.80;64.80;;;;;;5016196;28;93151;-65
2022/04/23 11:24:49;;;;;;;;;;;20.80;65.50;;;;;;5011016;28;92747;-64
2022/04/23 11:27:32;;;;;;;49.25;20.42;;;20.80;65.10;;;;;;5012434;28;94356;-65
2022/04/23 11:29:58;;;;;;;51.92;20.65;;;20.90;64.90;;;;;;5015086;28;96256;-65
2022/04/23 11:32:32;;;;;;;54.40;22.50;;;20.90;64.80;;;;;;5012846;28;94097;-65
2022/04/23 11:34:58;;;;;;;52.50;21.08;;;20.80;64.80;;;;;;5015268;28;92250;-65
2022/04/23 11:37:35;;;;;;;47.35;20.50;;;20.90;64.90;;;;;;5008324;28;93067;-65
2022/04/23 11:40:20;;;;;;;51.20;20.65;;;20.80;64.90;;;;;;5008338;28;93600;-65
2022/04/23 11:42:49;;;;;;;39.13;18.02;;;20.90;64.80;;;;;;5013146;28;94051;-65
2022/04/23 11:45:16;;;;;;;48.95;19.13;;;20.80;64.80;;;;;;5014298;28;92063;-65
2022/04/23 11:47:42;;;;;;;37.08;17.73;;;20.80;65.50;;;;;;5009350;28;93145;-65
2022/04/23 11:50:11;;;;;;;48.63;19.42;;;20.80;64.70;;;;;;5008325;28;92974;-65
2022/04/23 11:52:38;;;;;;;46.78;19.98;;;20.90;64.70;;;;;;5012369;28;92559;-65
2022/04/23 11:55:18;;;;;;;45.45;19.27;;;20.80;64.60;;;;;;5011365;28;92014;-65
2022/04/23 11:57:52;;;;;;;41.50;18.65;;;20.80;64.70;;;;;;5006223;28;95062;-65
2022/04/23 12:00:20;;;;;;;39.28;17.77;;;20.80;64.90;;;;;;5015462;28;92821;-65
2022/04/23 12:02:46;;;;;;;44.42;18.88;;;20.80;64.70;;;;;;5012895;28;92586;-65
2022/04/23 12:05:12;;;;;;;38.10;18.20;;;20.80;64.50;;;;;;5012377;27;92837;-64
2022/04/23 12:07:40;;;;;;;48.17;20.00;;;20.90;64.60;;;;;;5017875;28;94245;-65
2022/04/23 12:10:06;;;;;;;45.75;17.27;;;20.90;64.60;;;;;;5013464;28;94661;-65
2022/04/23 12:12:33;;;;;;;43.05;17.65;;;20.90;64.30;;;;;;5008996;28;92152;-65
2022/04/23 12:15:07;;;;;;;45.75;18.63;;;20.90;64.50;;;;;;5011101;28;92445;-65
2022/04/23 12:17:47;;;;;;;40.70;18.30;;;20.90;64.30;;;;;;5014253;28;93177;-65
2022/04/23 12:20:20;;;;;;;38.45;17.92;;;20.90;64.30;;;;;;5010743;28;93598;-65
2022/04/23 12:22:54;;;;;;;39.08;17.17;;;20.90;63.90;;;;;;5013580;28;92924;-65
2022/04/23 12:25:26;;;;;;;37.13;17.27;;;20.90;64.00;;;;;;5014280;28;92047;-65
2022/04/23 12:42:28;;;;;;;36.65;16.77;;;20.90;63.70;;;;;;5015800;28;92914;-62
2022/04/23 12:44:54;;;;;;;38.63;17.13;;;20.90;63.60;;;;;;5020043;28;92700;-62
2022/04/23 12:47:35;;;;;;;37.08;16.63;;;20.90;63.50;;;;;;5014959;28;93462;-62
2022/04/23 12:50:07;;;;;;;32.70;15.75;;;20.90;63.60;;;;;;5021841;28;93141;-62
2022/04/23 12:52:46;;;;;;;35.15;16.00;;;20.90;63.00;;;;;;5019700;27;92258;-61
2022/04/23 12:55:28;;;;;;;35.88;16.65;;;20.80;63.10;;;;;;5012547;27;92752;-62
2022/04/23 12:58:03;;;;;;;38.95;15.65;;;20.80;62.80;;;;;;5020012;28;92739;-62
2022/04/23 13:00:37;;;;;;;27.77;14.88;;;20.90;61.20;;;;;;5016182;28;94127;-61
2022/04/23 13:03:31;;;;;;;32.42;16.15;;;20.90;62.60;;;;;;5013703;28;93828;-61
2022/04/23 13:05:56;;;;;;;32.60;14.98;;;20.90;62.60;;;;;;5018128;28;92287;-61
2022/04/23 13:11:24;;;;;;;29.40;13.55;;;20.90;62.10;;;;;;5013505;28;92919;-61
2022/04/23 13:13:54;;;;;;;28.13;14.02;;;20.90;62.00;;;;;;5017045;28;93528;-62
2022/04/23 13:16:24;;;;;;;;;;;20.90;61.80;;;;;;5015576;28;91960;-62
2022/04/23 13:18:54;;;;;;;27.50;13.35;;;20.90;62.20;;;;;;5014205;28;91280;-60
2022/04/23 13:21:21;;;;;;;28.55;13.98;;;20.90;62.00;;;;;;5015296;28;93253;-61
2022/04/23 13:23:47;;;;;;;27.20;14.18;;;20.90;62.20;;;;;;5019893;28;92780;-61
2022/04/23 13:26:14;;;;;;;32.20;15.50;;;20.90;62.20;;;;;;5014853;28;94232;-61
2022/04/23 13:28:40;;;;;;;28.25;13.38;;;20.90;62.50;;;;;;5007537;28;93266;-62
2022/04/23 13:31:06;;;;;;;27.08;13.90;;;20.90;62.60;;;;;;5018326;27;92682;-62
2022/04/23 13:33:31;;;;;;;28.50;14.27;;;20.90;62.80;;;;;;4996030;27;93416;-61
2022/04/23 13:35:57;;;;;;;27.75;13.52;;;20.90;62.90;;;;;;5012988;28;93010;-61